sensor_id;sensor_type;location;lat;lon;timestamp;P1;durP1;ratioP1;P2;durP2;ratioP2
40314;SDS011;26021;45.640;11.302;2023-11-21T00:02:19;40.80;;;28.38;;
40314;SDS011;26021;45.640;11.302;2023-11-21T00:04:45;38.67;;;27.95;;
40314;SDS011;26021;45.640;11.302;2023-11-21T00:07:13;39.60;;;29.65;;
40314;SDS011;26021;45.640;11.302;2023-11-21T00:09:38;48.55;;;34.25;;
40314;SDS011;26021;45.640;11.302;2023-11-21T00:12:04;43.35;;;31.58;;
40314;SDS011;26021;45.640;11.302;2023-11-21T00:14:29;42.17;;;31.10;;
40314;SDS011;26021;45.640;11.302;2023-11-21T00:16:55;44.80;;;31.63;;
40314;SDS011;26021;45.640;11.302;2023-11-21T00:19:20;41.80;;;30.83;;
40314;SDS011;26021;45.640;11.302;2023-11-21T00:21:45;40.53;;;29.75;;
40314;SDS011;26021;45.640;11.302;2023-11-21T00:24:11;37.97;;;28.67;;
40314;SDS011;26021;45.640;11.302;2023-11-21T00:26:39;43.40;;;32.13;;
40314;SDS011;26021;45.640;11.302;2023-11-21T00:29:05;38.80;;;28.98;;
40314;SDS011;26021;45.640;11.302;2023-11-21T00:31:33;41.40;;;31.73;;
40314;SDS011;26021;45.640;11.302;2023-11-21T00:34:02;45.13;;;31.17;;
40314;SDS011;26021;45.640;11.302;2023-11-21T00:36:30;44.70;;;32.83;;
40314;SDS011;26021;45.640;11.302;2023-11-21T00:38:57;48.47;;;35.03;;
40314;SDS011;26021;45.640;11.302;2023-11-21T00:41:22;42.20;;;31.00;;
40314;SDS011;26021;45.640;11.302;2023-11-21T00:43:48;46.88;;;33.67;;
40314;SDS011;26021;45.640;11.302;2023-11-21T00:46:13;45.60;;;31.55;;
40314;SDS011;26021;45.640;11.302;2023-11-21T00:48:39;45.38;;;33.70;;
40314;SDS011;26021;45.640;11.302;2023-11-21T00:51:04;43.70;;;30.85;;
40314;SDS011;26021;45.640;11.302;2023-11-21T00:53:31;44.22;;;30.95;;
40314;SDS011;26021;45.640;11.302;2023-11-21T00:55:57;42.40;;;31.08;;
40314;SDS011;26021;45.640;11.302;2023-11-21T00:58:25;48.08;;;32.88;;
40314;SDS011;26021;45.640;11.302;2023-11-21T01:00:51;44.90;;;33.35;;
40314;SDS011;26021;45.640;11.302;2023-11-21T01:03:16;42.50;;;32.47;;
40314;SDS011;26021;45.640;11.302;2023-11-21T01:05:42;44.88;;;32.80;;
40314;SDS011;26021;45.640;11.302;2023-11-21T01:08:07;41.13;;;31.52;;
40314;SDS011;26021;45.640;11.302;2023-11-21T01:10:32;43.58;;;31.10;;
40314;SDS011;26021;45.640;11.302;2023-11-21T01:12:59;40.30;;;30.27;;
40314;SDS011;26021;45.640;11.302;2023-11-21T01:15:25;38.67;;;28.88;;
40314;SDS011;26021;45.640;11.302;2023-11-21T01:17:51;40.08;;;29.25;;
40314;SDS011;26021;45.640;11.302;2023-11-21T01:20:17;39.50;;;29.45;;
40314;SDS011;26021;45.640;11.302;2023-11-21T01:22:42;35.78;;;27.05;;
40314;SDS011;26021;45.640;11.302;2023-11-21T01:25:09;42.53;;;30.40;;
40314;SDS011;26021;45.640;11.302;2023-11-21T01:27:35;41.83;;;28.90;;
40314;SDS011;26021;45.640;11.302;2023-11-21T01:30:02;39.92;;;30.35;;
40314;SDS011;26021;45.640;11.302;2023-11-21T01:32:28;45.88;;;31.73;;
40314;SDS011;26021;45.640;11.302;2023-11-21T01:34:54;42.90;;;30.17;;
40314;SDS011;26021;45.640;11.302;2023-11-21T01:37:20;40.90;;;31.00;;
40314;SDS011;26021;45.640;11.302;2023-11-21T01:39:46;41.72;;;30.88;;
40314;SDS011;26021;45.640;11.302;2023-11-21T01:42:12;40.95;;;30.27;;
40314;SDS011;26021;45.640;11.302;2023-11-21T01:44:38;41.15;;;31.23;;
40314;SDS011;26021;45.640;11.302;2023-11-21T01:47:07;38.53;;;29.02;;
40314;SDS011;26021;45.640;11.302;2023-11-21T01:49:34;44.10;;;30.63;;
40314;SDS011;26021;45.640;11.302;2023-11-21T01:52:01;40.35;;;29.52;;
40314;SDS011;26021;45.640;11.302;2023-11-21T01:54:29;40.92;;;30.30;;
40314;SDS011;26021;45.640;11.302;2023-11-21T01:56:58;42.95;;;29.45;;
40314;SDS011;26021;45.640;11.302;2023-11-21T01:59:29;37.88;;;28.88;;
40314;SDS011;26021;45.640;11.302;2023-11-21T02:02:10;42.33;;;29.23;;
40314;SDS011;26021;45.640;11.302;2023-11-21T02:04:36;42.97;;;29.58;;
40314;SDS011;26021;45.640;11.302;2023-11-21T02:07:02;38.75;;;28.67;;
40314;SDS011;26021;45.640;11.302;2023-11-21T02:09:30;36.97;;;25.83;;
40314;SDS011;26021;45.640;11.302;2023-11-21T02:11:56;38.00;;;26.52;;
40314;SDS011;26021;45.640;11.302;2023-11-21T02:14:23;34.50;;;25.92;;
40314;SDS011;26021;45.640;11.302;2023-11-21T02:16:51;32.95;;;24.75;;
40314;SDS011;26021;45.640;11.302;2023-11-21T02:19:18;37.90;;;24.90;;
40314;SDS011;26021;45.640;11.302;2023-11-21T02:21:45;32.35;;;24.17;;
40314;SDS011;26021;45.640;11.302;2023-11-21T02:24:13;31.80;;;25.15;;
40314;SDS011;26021;45.640;11.302;2023-11-21T02:26:38;35.53;;;25.40;;
40314;SDS011;26021;45.640;11.302;2023-11-21T02:29:04;37.38;;;25.15;;
40314;SDS011;26021;45.640;11.302;2023-11-21T02:31:29;34.45;;;25.73;;
40314;SDS011;26021;45.640;11.302;2023-11-21T02:33:56;33.17;;;24.33;;
40314;SDS011;26021;45.640;11.302;2023-11-21T02:36:21;32.72;;;23.92;;
40314;SDS011;26021;45.640;11.302;2023-11-21T02:38:47;30.65;;;24.33;;
40314;SDS011;26021;45.640;11.302;2023-11-21T02:41:12;35.53;;;26.02;;
40314;SDS011;26021;45.640;11.302;2023-11-21T02:43:38;32.50;;;24.83;;
40314;SDS011;26021;45.640;11.302;2023-11-21T02:46:04;32.28;;;23.77;;
40314;SDS011;26021;45.640;11.302;2023-11-21T02:48:29;32.33;;;22.35;;
40314;SDS011;26021;45.640;11.302;2023-11-21T02:50:55;31.10;;;23.10;;
40314;SDS011;26021;45.640;11.302;2023-11-21T02:53:21;34.08;;;23.63;;
40314;SDS011;26021;45.640;11.302;2023-11-21T02:55:46;30.63;;;21.58;;
40314;SDS011;26021;45.640;11.302;2023-11-21T02:58:12;28.95;;;21.65;;
40314;SDS011;26021;45.640;11.302;2023-11-21T03:00:37;31.10;;;22.00;;
40314;SDS011;26021;45.640;11.302;2023-11-21T03:03:05;28.88;;;21.00;;
40314;SDS011;26021;45.640;11.302;2023-11-21T03:05:30;29.48;;;22.15;;
40314;SDS011;26021;45.640;11.302;2023-11-21T03:07:56;30.17;;;22.00;;
40314;SDS011;26021;45.640;11.302;2023-11-21T03:10:21;31.48;;;21.80;;
40314;SDS011;26021;45.640;11.302;2023-11-21T03:12:47;27.55;;;21.25;;
40314;SDS011;26021;45.640;11.302;2023-11-21T03:15:12;35.72;;;24.02;;
40314;SDS011;26021;45.640;11.302;2023-11-21T03:17:38;32.00;;;22.70;;
40314;SDS011;26021;45.640;11.302;2023-11-21T03:20:03;31.63;;;21.77;;
40314;SDS011;26021;45.640;11.302;2023-11-21T03:22:29;30.08;;;21.95;;
40314;SDS011;26021;45.640;11.302;2023-11-21T03:24:55;30.17;;;22.77;;
40314;SDS011;26021;45.640;11.302;2023-11-21T03:27:20;30.08;;;22.02;;
40314;SDS011;26021;45.640;11.302;2023-11-21T03:29:46;30.05;;;21.25;;
40314;SDS011;26021;45.640;11.302;2023-11-21T03:32:12;29.63;;;20.52;;
40314;SDS011;26021;45.640;11.302;2023-11-21T03:34:52;27.58;;;19.88;;
40314;SDS011;26021;45.640;11.302;2023-11-21T03:37:20;26.80;;;18.17;;
40314;SDS011;26021;45.640;11.302;2023-11-21T03:39:46;25.80;;;17.45;;
40314;SDS011;26021;45.640;11.302;2023-11-21T03:42:12;21.83;;;16.85;;
40314;SDS011;26021;45.640;11.302;2023-11-21T03:44:37;24.70;;;17.80;;
40314;SDS011;26021;45.640;11.302;2023-11-21T03:47:03;26.95;;;19.08;;
40314;SDS011;26021;45.640;11.302;2023-11-21T03:49:28;26.13;;;17.45;;
40314;SDS011;26021;45.640;11.302;2023-11-21T03:51:54;22.38;;;17.20;;
40314;SDS011;26021;45.640;11.302;2023-11-21T03:54:20;22.35;;;17.67;;
40314;SDS011;26021;45.640;11.302;2023-11-21T03:56:46;23.45;;;18.20;;
40314;SDS011;26021;45.640;11.302;2023-11-21T03:59:11;21.60;;;17.38;;
40314;SDS011;26021;45.640;11.302;2023-11-21T04:01:37;22.88;;;17.67;;
40314;SDS011;26021;45.640;11.302;2023-11-21T04:04:02;25.25;;;18.10;;
40314;SDS011;26021;45.640;11.302;2023-11-21T04:06:29;22.50;;;17.45;;
40314;SDS011;26021;45.640;11.302;2023-11-21T04:08:54;21.23;;;16.40;;
40314;SDS011;26021;45.640;11.302;2023-11-21T04:11:20;26.40;;;17.55;;
40314;SDS011;26021;45.640;11.302;2023-11-21T04:13:45;21.17;;;16.75;;
40314;SDS011;26021;45.640;11.302;2023-11-21T04:16:12;23.75;;;17.42;;
40314;SDS011;26021;45.640;11.302;2023-11-21T04:18:38;22.08;;;17.10;;
40314;SDS011;26021;45.640;11.302;2023-11-21T04:21:06;22.88;;;16.75;;
40314;SDS011;26021;45.640;11.302;2023-11-21T04:23:32;26.23;;;17.77;;
40314;SDS011;26021;45.640;11.302;2023-11-21T04:25:58;19.65;;;15.20;;
40314;SDS011;26021;45.640;11.302;2023-11-21T04:28:24;16.95;;;14.43;;
40314;SDS011;26021;45.640;11.302;2023-11-21T04:30:50;21.75;;;14.55;;
40314;SDS011;26021;45.640;11.302;2023-11-21T04:33:15;19.90;;;14.48;;
40314;SDS011;26021;45.640;11.302;2023-11-21T04:35:41;20.73;;;14.95;;
40314;SDS011;26021;45.640;11.302;2023-11-21T04:38:07;23.02;;;14.70;;
40314;SDS011;26021;45.640;11.302;2023-11-21T04:40:32;21.48;;;15.30;;
40314;SDS011;26021;45.640;11.302;2023-11-21T04:42:58;19.27;;;14.32;;
40314;SDS011;26021;45.640;11.302;2023-11-21T04:45:23;21.20;;;15.95;;
40314;SDS011;26021;45.640;11.302;2023-11-21T04:47:48;18.55;;;13.60;;
40314;SDS011;26021;45.640;11.302;2023-11-21T04:50:14;18.15;;;13.43;;
40314;SDS011;26021;45.640;11.302;2023-11-21T04:52:39;18.48;;;14.05;;
40314;SDS011;26021;45.640;11.302;2023-11-21T04:55:05;17.75;;;13.07;;
40314;SDS011;26021;45.640;11.302;2023-11-21T04:57:34;15.95;;;13.27;;
40314;SDS011;26021;45.640;11.302;2023-11-21T05:00:00;17.15;;;13.18;;
40314;SDS011;26021;45.640;11.302;2023-11-21T05:02:26;19.13;;;13.98;;
40314;SDS011;26021;45.640;11.302;2023-11-21T05:04:51;19.17;;;13.18;;
40314;SDS011;26021;45.640;11.302;2023-11-21T05:07:18;22.48;;;12.65;;
40314;SDS011;26021;45.640;11.302;2023-11-21T05:09:44;16.63;;;12.45;;
40314;SDS011;26021;45.640;11.302;2023-11-21T05:12:11;16.13;;;12.05;;
40314;SDS011;26021;45.640;11.302;2023-11-21T05:14:37;19.73;;;12.75;;
40314;SDS011;26021;45.640;11.302;2023-11-21T05:17:03;15.40;;;12.43;;
40314;SDS011;26021;45.640;11.302;2023-11-21T05:19:29;18.48;;;12.82;;
40314;SDS011;26021;45.640;11.302;2023-11-21T05:21:55;20.33;;;12.63;;
40314;SDS011;26021;45.640;11.302;2023-11-21T05:24:20;19.80;;;13.07;;
40314;SDS011;26021;45.640;11.302;2023-11-21T05:26:46;18.08;;;12.80;;
40314;SDS011;26021;45.640;11.302;2023-11-21T05:29:11;20.88;;;14.57;;
40314;SDS011;26021;45.640;11.302;2023-11-21T05:31:36;17.52;;;13.77;;
40314;SDS011;26021;45.640;11.302;2023-11-21T05:34:03;20.35;;;15.27;;
40314;SDS011;26021;45.640;11.302;2023-11-21T05:36:30;16.50;;;13.05;;
40314;SDS011;26021;45.640;11.302;2023-11-21T05:38:56;15.05;;;11.18;;
40314;SDS011;26021;45.640;11.302;2023-11-21T05:41:21;17.38;;;12.27;;
40314;SDS011;26021;45.640;11.302;2023-11-21T05:43:47;18.15;;;12.63;;
40314;SDS011;26021;45.640;11.302;2023-11-21T05:46:12;16.55;;;12.45;;
40314;SDS011;26021;45.640;11.302;2023-11-21T05:48:38;17.40;;;12.90;;
40314;SDS011;26021;45.640;11.302;2023-11-21T05:51:04;15.02;;;12.68;;
40314;SDS011;26021;45.640;11.302;2023-11-21T05:53:31;17.27;;;12.35;;
40314;SDS011;26021;45.640;11.302;2023-11-21T05:55:56;27.20;;;20.42;;
40314;SDS011;26021;45.640;11.302;2023-11-21T05:58:22;16.40;;;12.75;;
40314;SDS011;26021;45.640;11.302;2023-11-21T06:00:48;18.98;;;15.70;;
40314;SDS011;26021;45.640;11.302;2023-11-21T06:03:13;22.00;;;15.75;;
40314;SDS011;26021;45.640;11.302;2023-11-21T06:05:39;19.48;;;15.52;;
40314;SDS011;26021;45.640;11.302;2023-11-21T06:08:04;20.10;;;14.10;;
40314;SDS011;26021;45.640;11.302;2023-11-21T06:10:30;18.02;;;14.05;;
40314;SDS011;26021;45.640;11.302;2023-11-21T06:12:56;20.08;;;14.32;;
40314;SDS011;26021;45.640;11.302;2023-11-21T06:15:22;19.67;;;15.27;;
40314;SDS011;26021;45.640;11.302;2023-11-21T06:17:48;22.48;;;14.68;;
40314;SDS011;26021;45.640;11.302;2023-11-21T06:20:19;22.33;;;14.60;;
40314;SDS011;26021;45.640;11.302;2023-11-21T06:22:46;18.08;;;11.93;;
40314;SDS011;26021;45.640;11.302;2023-11-21T06:25:13;20.73;;;14.57;;
40314;SDS011;26021;45.640;11.302;2023-11-21T06:27:43;23.27;;;15.57;;
40314;SDS011;26021;45.640;11.302;2023-11-21T06:30:10;17.52;;;12.45;;
40314;SDS011;26021;45.640;11.302;2023-11-21T06:32:37;22.08;;;14.27;;
40314;SDS011;26021;45.640;11.302;2023-11-21T06:35:06;17.48;;;13.52;;
40314;SDS011;26021;45.640;11.302;2023-11-21T06:37:33;22.85;;;14.93;;
40314;SDS011;26021;45.640;11.302;2023-11-21T06:39:59;23.92;;;16.70;;
40314;SDS011;26021;45.640;11.302;2023-11-21T06:42:25;24.17;;;16.52;;
40314;SDS011;26021;45.640;11.302;2023-11-21T06:44:52;24.45;;;17.30;;
40314;SDS011;26021;45.640;11.302;2023-11-21T06:47:18;23.10;;;15.45;;
40314;SDS011;26021;45.640;11.302;2023-11-21T06:49:45;22.67;;;16.15;;
40314;SDS011;26021;45.640;11.302;2023-11-21T06:52:13;22.58;;;14.30;;
40314;SDS011;26021;45.640;11.302;2023-11-21T06:54:38;18.73;;;13.57;;
40314;SDS011;26021;45.640;11.302;2023-11-21T06:57:04;16.45;;;12.02;;
40314;SDS011;26021;45.640;11.302;2023-11-21T06:59:30;24.73;;;12.73;;
40314;SDS011;26021;45.640;11.302;2023-11-21T07:01:55;15.80;;;11.95;;
40314;SDS011;26021;45.640;11.302;2023-11-21T07:04:21;17.92;;;12.35;;
40314;SDS011;26021;45.640;11.302;2023-11-21T07:06:46;17.02;;;12.20;;
40314;SDS011;26021;45.640;11.302;2023-11-21T07:09:11;20.20;;;14.98;;
40314;SDS011;26021;45.640;11.302;2023-11-21T07:11:39;32.20;;;22.60;;
40314;SDS011;26021;45.640;11.302;2023-11-21T07:14:04;24.23;;;17.55;;
40314;SDS011;26021;45.640;11.302;2023-11-21T07:16:37;24.83;;;17.60;;
40314;SDS011;26021;45.640;11.302;2023-11-21T07:19:06;20.55;;;14.35;;
40314;SDS011;26021;45.640;11.302;2023-11-21T07:21:35;22.92;;;16.20;;
40314;SDS011;26021;45.640;11.302;2023-11-21T07:24:01;20.48;;;15.63;;
40314;SDS011;26021;45.640;11.302;2023-11-21T07:26:28;19.35;;;15.30;;
40314;SDS011;26021;45.640;11.302;2023-11-21T07:28:54;25.50;;;17.35;;
40314;SDS011;26021;45.640;11.302;2023-11-21T07:31:21;25.15;;;17.83;;
40314;SDS011;26021;45.640;11.302;2023-11-21T07:33:47;34.63;;;24.05;;
40314;SDS011;26021;45.640;11.302;2023-11-21T07:36:13;27.23;;;20.05;;
40314;SDS011;26021;45.640;11.302;2023-11-21T07:38:40;23.83;;;17.02;;
40314;SDS011;26021;45.640;11.302;2023-11-21T07:41:06;20.80;;;15.07;;
40314;SDS011;26021;45.640;11.302;2023-11-21T07:43:33;21.23;;;15.13;;
40314;SDS011;26021;45.640;11.302;2023-11-21T07:46:03;21.92;;;13.90;;
40314;SDS011;26021;45.640;11.302;2023-11-21T07:48:30;19.98;;;14.00;;
40314;SDS011;26021;45.640;11.302;2023-11-21T07:50:56;23.17;;;15.23;;
40314;SDS011;26021;45.640;11.302;2023-11-21T07:53:23;21.98;;;14.32;;
40314;SDS011;26021;45.640;11.302;2023-11-21T07:55:50;29.85;;;17.83;;
40314;SDS011;26021;45.640;11.302;2023-11-21T07:58:16;24.80;;;16.02;;
40314;SDS011;26021;45.640;11.302;2023-11-21T08:00:41;19.45;;;14.02;;
40314;SDS011;26021;45.640;11.302;2023-11-21T08:03:07;19.33;;;14.63;;
40314;SDS011;26021;45.640;11.302;2023-11-21T08:05:32;33.67;;;22.90;;
40314;SDS011;26021;45.640;11.302;2023-11-21T08:07:58;20.75;;;15.77;;
40314;SDS011;26021;45.640;11.302;2023-11-21T08:10:23;22.75;;;14.80;;
40314;SDS011;26021;45.640;11.302;2023-11-21T08:12:49;24.17;;;14.50;;
40314;SDS011;26021;45.640;11.302;2023-11-21T08:15:16;20.80;;;14.35;;
40314;SDS011;26021;45.640;11.302;2023-11-21T08:17:41;24.35;;;14.48;;
40314;SDS011;26021;45.640;11.302;2023-11-21T08:20:07;21.08;;;14.68;;
40314;SDS011;26021;45.640;11.302;2023-11-21T08:22:35;34.40;;;20.75;;
40314;SDS011;26021;45.640;11.302;2023-11-21T08:25:01;34.45;;;21.10;;
40314;SDS011;26021;45.640;11.302;2023-11-21T08:27:29;31.52;;;17.45;;
40314;SDS011;26021;45.640;11.302;2023-11-21T08:29:54;22.05;;;15.70;;
40314;SDS011;26021;45.640;11.302;2023-11-21T08:32:21;25.60;;;16.58;;
40314;SDS011;26021;45.640;11.302;2023-11-21T08:34:47;22.77;;;15.68;;
40314;SDS011;26021;45.640;11.302;2023-11-21T08:37:15;46.20;;;23.27;;
40314;SDS011;26021;45.640;11.302;2023-11-21T08:39:41;27.55;;;18.63;;
40314;SDS011;26021;45.640;11.302;2023-11-21T08:42:08;20.20;;;14.13;;
40314;SDS011;26021;45.640;11.302;2023-11-21T08:44:33;23.40;;;14.93;;
40314;SDS011;26021;45.640;11.302;2023-11-21T08:46:59;27.02;;;17.15;;
40314;SDS011;26021;45.640;11.302;2023-11-21T08:49:24;24.13;;;15.90;;
40314;SDS011;26021;45.640;11.302;2023-11-21T08:51:52;23.70;;;16.08;;
40314;SDS011;26021;45.640;11.302;2023-11-21T08:54:20;18.90;;;13.07;;
40314;SDS011;26021;45.640;11.302;2023-11-21T08:56:46;16.58;;;11.27;;
40314;SDS011;26021;45.640;11.302;2023-11-21T08:59:11;14.90;;;10.60;;
40314;SDS011;26021;45.640;11.302;2023-11-21T09:01:39;12.60;;;10.57;;
40314;SDS011;26021;45.640;11.302;2023-11-21T09:04:05;15.40;;;10.18;;
40314;SDS011;26021;45.640;11.302;2023-11-21T09:06:31;16.40;;;10.13;;
40314;SDS011;26021;45.640;11.302;2023-11-21T09:08:57;29.92;;;11.15;;
40314;SDS011;26021;45.640;11.302;2023-11-21T09:11:23;14.88;;;10.60;;
40314;SDS011;26021;45.640;11.302;2023-11-21T09:13:50;15.60;;;9.98;;
40314;SDS011;26021;45.640;11.302;2023-11-21T09:16:16;45.38;;;11.88;;
40314;SDS011;26021;45.640;11.302;2023-11-21T09:18:42;28.65;;;12.57;;
40314;SDS011;26021;45.640;11.302;2023-11-21T09:21:07;11.90;;;9.05;;
40314;SDS011;26021;45.640;11.302;2023-11-21T09:23:33;18.88;;;11.15;;
40314;SDS011;26021;45.640;11.302;2023-11-21T09:25:59;25.88;;;12.05;;
40314;SDS011;26021;45.640;11.302;2023-11-21T09:28:26;14.27;;;10.95;;
40314;SDS011;26021;45.640;11.302;2023-11-21T09:30:52;13.27;;;10.00;;
40314;SDS011;26021;45.640;11.302;2023-11-21T09:33:18;14.20;;;9.55;;
40314;SDS011;26021;45.640;11.302;2023-11-21T09:35:44;27.05;;;12.35;;
40314;SDS011;26021;45.640;11.302;2023-11-21T09:38:09;16.90;;;12.23;;
40314;SDS011;26021;45.640;11.302;2023-11-21T09:40:36;17.58;;;11.48;;
40314;SDS011;26021;45.640;11.302;2023-11-21T09:43:15;15.80;;;12.88;;
40314;SDS011;26021;45.640;11.302;2023-11-21T09:45:44;14.63;;;11.50;;
40314;SDS011;26021;45.640;11.302;2023-11-21T09:48:12;13.38;;;11.18;;
40314;SDS011;26021;45.640;11.302;2023-11-21T09:50:39;16.80;;;15.02;;
40314;SDS011;26021;45.640;11.302;2023-11-21T09:53:17;21.73;;;12.32;;
40314;SDS011;26021;45.640;11.302;2023-11-21T09:55:49;41.25;;;13.68;;
40314;SDS011;26021;45.640;11.302;2023-11-21T09:58:17;19.75;;;12.40;;
40314;SDS011;26021;45.640;11.302;2023-11-21T10:00:45;20.05;;;12.45;;
40314;SDS011;26021;45.640;11.302;2023-11-21T10:03:12;15.32;;;10.10;;
40314;SDS011;26021;45.640;11.302;2023-11-21T10:05:38;30.55;;;11.65;;
40314;SDS011;26021;45.640;11.302;2023-11-21T10:08:07;14.13;;;10.50;;
40314;SDS011;26021;45.640;11.302;2023-11-21T10:10:35;17.92;;;9.27;;
40314;SDS011;26021;45.640;11.302;2023-11-21T10:13:03;63.20;;;14.23;;
40314;SDS011;26021;45.640;11.302;2023-11-21T10:15:33;13.60;;;6.97;;
40314;SDS011;26021;45.640;11.302;2023-11-21T10:18:03;16.05;;;6.45;;
40314;SDS011;26021;45.640;11.302;2023-11-21T10:20:31;8.98;;;5.75;;
40314;SDS011;26021;45.640;11.302;2023-11-21T10:22:58;11.13;;;6.07;;
40314;SDS011;26021;45.640;11.302;2023-11-21T10:25:24;13.70;;;6.82;;
40314;SDS011;26021;45.640;11.302;2023-11-21T10:27:55;10.70;;;5.90;;
40314;SDS011;26021;45.640;11.302;2023-11-21T10:30:27;12.20;;;5.85;;
40314;SDS011;26021;45.640;11.302;2023-11-21T10:33:01;44.97;;;29.55;;
40314;SDS011;26021;45.640;11.302;2023-11-21T10:35:38;11.48;;;6.63;;
40314;SDS011;26021;45.640;11.302;2023-11-21T10:38:07;9.50;;;7.25;;
40314;SDS011;26021;45.640;11.302;2023-11-21T10:40:38;12.70;;;9.27;;
40314;SDS011;26021;45.640;11.302;2023-11-21T10:43:07;22.63;;;10.75;;
40314;SDS011;26021;45.640;11.302;2023-11-21T10:45:38;17.75;;;10.73;;
40314;SDS011;26021;45.640;11.302;2023-11-21T10:48:07;14.63;;;11.13;;
40314;SDS011;26021;45.640;11.302;2023-11-21T10:50:35;9.82;;;7.65;;
40314;SDS011;26021;45.640;11.302;2023-11-21T10:53:05;22.35;;;7.63;;
40314;SDS011;26021;45.640;11.302;2023-11-21T10:55:31;20.65;;;6.80;;
40314;SDS011;26021;45.640;11.302;2023-11-21T10:58:01;17.25;;;6.95;;
40314;SDS011;26021;45.640;11.302;2023-11-21T11:00:29;10.05;;;6.35;;
40314;SDS011;26021;45.640;11.302;2023-11-21T11:02:56;11.15;;;5.50;;
40314;SDS011;26021;45.640;11.302;2023-11-21T11:05:24;33.42;;;6.97;;
40314;SDS011;26021;45.640;11.302;2023-11-21T11:07:51;6.50;;;4.50;;
40314;SDS011;26021;45.640;11.302;2023-11-21T11:10:24;9.20;;;5.38;;
40314;SDS011;26021;45.640;11.302;2023-11-21T11:12:52;11.07;;;7.90;;
40314;SDS011;26021;45.640;11.302;2023-11-21T11:15:19;17.20;;;12.13;;
40314;SDS011;26021;45.640;11.302;2023-11-21T11:17:45;12.85;;;8.30;;
40314;SDS011;26021;45.640;11.302;2023-11-21T11:20:12;14.25;;;8.18;;
40314;SDS011;26021;45.640;11.302;2023-11-21T11:27:54;9.57;;;6.88;;
40314;SDS011;26021;45.640;11.302;2023-11-21T11:36:34;18.30;;;11.33;;
40314;SDS011;26021;45.640;11.302;2023-11-21T11:39:03;24.95;;;17.85;;
40314;SDS011;26021;45.640;11.302;2023-11-21T11:41:55;22.08;;;11.45;;
40314;SDS011;26021;45.640;11.302;2023-11-21T11:49:56;16.65;;;12.43;;
40314;SDS011;26021;45.640;11.302;2023-11-21T11:52:34;19.88;;;11.70;;
40314;SDS011;26021;45.640;11.302;2023-11-21T11:55:10;16.23;;;13.18;;
40314;SDS011;26021;45.640;11.302;2023-11-21T11:57:37;18.17;;;12.13;;
40314;SDS011;26021;45.640;11.302;2023-11-21T12:02:46;16.48;;;13.43;;
40314;SDS011;26021;45.640;11.302;2023-11-21T12:05:13;15.80;;;12.88;;
40314;SDS011;26021;45.640;11.302;2023-11-21T12:10:12;16.08;;;12.57;;
40314;SDS011;26021;45.640;11.302;2023-11-21T12:12:42;18.30;;;13.73;;
40314;SDS011;26021;45.640;11.302;2023-11-21T12:15:09;19.70;;;13.18;;
40314;SDS011;26021;45.640;11.302;2023-11-21T12:17:37;18.05;;;12.90;;
40314;SDS011;26021;45.640;11.302;2023-11-21T12:20:03;16.27;;;14.18;;
40314;SDS011;26021;45.640;11.302;2023-11-21T12:22:32;81.32;;;44.63;;
40314;SDS011;26021;45.640;11.302;2023-11-21T12:24:58;19.30;;;14.90;;
40314;SDS011;26021;45.640;11.302;2023-11-21T12:27:23;31.42;;;22.35;;
40314;SDS011;26021;45.640;11.302;2023-11-21T12:29:48;27.80;;;19.35;;
40314;SDS011;26021;45.640;11.302;2023-11-21T12:32:14;19.45;;;15.73;;
40314;SDS011;26021;45.640;11.302;2023-11-21T12:34:41;20.33;;;17.17;;
40314;SDS011;26021;45.640;11.302;2023-11-21T12:37:07;21.20;;;17.33;;
40314;SDS011;26021;45.640;11.302;2023-11-21T12:39:32;26.02;;;19.85;;
40314;SDS011;26021;45.640;11.302;2023-11-21T12:41:57;23.60;;;18.50;;
40314;SDS011;26021;45.640;11.302;2023-11-21T12:44:23;64.63;;;42.88;;
40314;SDS011;26021;45.640;11.302;2023-11-21T12:46:49;59.28;;;39.58;;
40314;SDS011;26021;45.640;11.302;2023-11-21T12:49:15;40.35;;;24.52;;
40314;SDS011;26021;45.640;11.302;2023-11-21T12:51:44;14.65;;;10.35;;
40314;SDS011;26021;45.640;11.302;2023-11-21T12:54:12;10.55;;;7.35;;
40314;SDS011;26021;45.640;11.302;2023-11-21T12:56:38;21.20;;;19.17;;
40314;SDS011;26021;45.640;11.302;2023-11-21T12:59:04;24.33;;;16.08;;
40314;SDS011;26021;45.640;11.302;2023-11-21T13:01:30;17.08;;;11.85;;
40314;SDS011;26021;45.640;11.302;2023-11-21T13:03:57;14.38;;;11.18;;
40314;SDS011;26021;45.640;11.302;2023-11-21T13:06:27;14.48;;;10.88;;
40314;SDS011;26021;45.640;11.302;2023-11-21T13:08:54;11.77;;;8.85;;
40314;SDS011;26021;45.640;11.302;2023-11-21T13:11:22;17.58;;;13.77;;
40314;SDS011;26021;45.640;11.302;2023-11-21T13:13:47;25.63;;;20.42;;
40314;SDS011;26021;45.640;11.302;2023-11-21T13:16:18;15.90;;;13.30;;
40314;SDS011;26021;45.640;11.302;2023-11-21T13:18:45;19.63;;;14.88;;
40314;SDS011;26021;45.640;11.302;2023-11-21T13:21:11;11.98;;;9.85;;
40314;SDS011;26021;45.640;11.302;2023-11-21T13:23:41;13.02;;;9.45;;
40314;SDS011;26021;45.640;11.302;2023-11-21T13:26:07;9.82;;;8.18;;
40314;SDS011;26021;45.640;11.302;2023-11-21T13:28:34;10.43;;;8.85;;
40314;SDS011;26021;45.640;11.302;2023-11-21T13:31:00;11.98;;;10.10;;
40314;SDS011;26021;45.640;11.302;2023-11-21T13:33:29;8.98;;;8.07;;
40314;SDS011;26021;45.640;11.302;2023-11-21T13:35:55;11.20;;;7.95;;
40314;SDS011;26021;45.640;11.302;2023-11-21T13:38:21;12.52;;;10.75;;
40314;SDS011;26021;45.640;11.302;2023-11-21T13:40:51;10.43;;;8.60;;
40314;SDS011;26021;45.640;11.302;2023-11-21T13:43:22;7.95;;;6.68;;
40314;SDS011;26021;45.640;11.302;2023-11-21T13:45:51;9.27;;;7.30;;
40314;SDS011;26021;45.640;11.302;2023-11-21T13:48:27;10.90;;;7.20;;
40314;SDS011;26021;45.640;11.302;2023-11-21T13:51:15;9.80;;;8.18;;
40314;SDS011;26021;45.640;11.302;2023-11-21T13:53:45;40.55;;;10.68;;
40314;SDS011;26021;45.640;11.302;2023-11-21T13:56:14;17.90;;;9.38;;
40314;SDS011;26021;45.640;11.302;2023-11-21T13:58:44;13.13;;;10.15;;
40314;SDS011;26021;45.640;11.302;2023-11-21T14:01:15;10.15;;;8.15;;
40314;SDS011;26021;45.640;11.302;2023-11-21T14:03:56;11.55;;;8.55;;
40314;SDS011;26021;45.640;11.302;2023-11-21T14:06:27;18.35;;;9.85;;
40314;SDS011;26021;45.640;11.302;2023-11-21T14:08:59;12.77;;;11.32;;
40314;SDS011;26021;45.640;11.302;2023-11-21T14:11:30;18.38;;;10.55;;
40314;SDS011;26021;45.640;11.302;2023-11-21T14:13:56;18.00;;;11.63;;
40314;SDS011;26021;45.640;11.302;2023-11-21T14:16:24;18.52;;;16.50;;
40314;SDS011;26021;45.640;11.302;2023-11-21T14:18:50;15.27;;;12.57;;
40314;SDS011;26021;45.640;11.302;2023-11-21T14:21:23;11.38;;;9.23;;
40314;SDS011;26021;45.640;11.302;2023-11-21T14:23:49;10.25;;;9.05;;
40314;SDS011;26021;45.640;11.302;2023-11-21T14:26:15;12.90;;;11.20;;
40314;SDS011;26021;45.640;11.302;2023-11-21T14:28:41;15.65;;;12.93;;
40314;SDS011;26021;45.640;11.302;2023-11-21T14:31:07;12.65;;;10.45;;
40314;SDS011;26021;45.640;11.302;2023-11-21T14:33:38;14.57;;;11.27;;